sensor_id;sensor_type;location;lat;lon;timestamp;temperature;humidity
32366;DHT22;18837;46.832;16.838;2023-02-04T00:03:19;5.50;97.30
32366;DHT22;18837;46.832;16.838;2023-02-04T00:05:57;5.50;96.90
32366;DHT22;18837;46.832;16.838;2023-02-04T00:08:23;5.40;96.60
32366;DHT22;18837;46.832;16.838;2023-02-04T00:10:48;5.50;97.00
32366;DHT22;18837;46.832;16.838;2023-02-04T00:13:14;5.50;96.90
32366;DHT22;18837;46.832;16.838;2023-02-04T00:15:40;5.50;96.80
32366;DHT22;18837;46.832;16.838;2023-02-04T00:18:06;5.50;96.90
32366;DHT22;18837;46.832;16.838;2023-02-04T00:20:55;5.50;96.90
32366;DHT22;18837;46.832;16.838;2023-02-04T00:23:46;5.40;97.40
32366;DHT22;18837;46.832;16.838;2023-02-04T00:27:20;5.50;97.50
32366;DHT22;18837;46.832;16.838;2023-02-04T00:29:45;5.40;96.90
32366;DHT22;18837;46.832;16.838;2023-02-04T00:32:11;5.40;97.10
32366;DHT22;18837;46.832;16.838;2023-02-04T00:37:43;5.40;97.20
32366;DHT22;18837;46.832;16.838;2023-02-04T00:40:27;5.40;97.50
32366;DHT22;18837;46.832;16.838;2023-02-04T00:42:56;5.40;97.00
32366;DHT22;18837;46.832;16.838;2023-02-04T00:45:22;5.40;96.90
32366;DHT22;18837;46.832;16.838;2023-02-04T00:47:54;5.40;97.00
32366;DHT22;18837;46.832;16.838;2023-02-04T00:50:20;5.30;97.50
32366;DHT22;18837;46.832;16.838;2023-02-04T00:52:54;5.40;96.90
32366;DHT22;18837;46.832;16.838;2023-02-04T00:58:20;5.40;97.30
32366;DHT22;18837;46.832;16.838;2023-02-04T01:01:11;5.40;97.60
32366;DHT22;18837;46.832;16.838;2023-02-04T01:03:37;5.40;97.10
32366;DHT22;18837;46.832;16.838;2023-02-04T01:06:05;5.40;96.70
32366;DHT22;18837;46.832;16.838;2023-02-04T01:08:31;5.40;96.90
32366;DHT22;18837;46.832;16.838;2023-02-04T01:10:57;5.40;97.00
32366;DHT22;18837;46.832;16.838;2023-02-04T01:13:22;5.40;97.00
32366;DHT22;18837;46.832;16.838;2023-02-04T01:15:48;5.40;97.10
32366;DHT22;18837;46.832;16.838;2023-02-04T01:18:14;5.40;97.00
32366;DHT22;18837;46.832;16.838;2023-02-04T01:20:40;5.40;97.10
32366;DHT22;18837;46.832;16.838;2023-02-04T01:23:05;5.40;97.00
32366;DHT22;18837;46.832;16.838;2023-02-04T01:25:32;5.40;97.00
32366;DHT22;18837;46.832;16.838;2023-02-04T01:27:58;5.30;97.00
32366;DHT22;18837;46.832;16.838;2023-02-04T01:33:52;5.40;97.60
32366;DHT22;18837;46.832;16.838;2023-02-04T01:36:26;5.30;97.10
32366;DHT22;18837;46.832;16.838;2023-02-04T01:38:52;5.40;97.50
32366;DHT22;18837;46.832;16.838;2023-02-04T01:41:18;5.30;96.90
32366;DHT22;18837;46.832;16.838;2023-02-04T01:43:47;5.30;96.90
32366;DHT22;18837;46.832;16.838;2023-02-04T01:46:14;5.30;97.00
32366;DHT22;18837;46.832;16.838;2023-02-04T01:48:59;5.30;96.90
32366;DHT22;18837;46.832;16.838;2023-02-04T01:51:28;5.30;97.00
32366;DHT22;18837;46.832;16.838;2023-02-04T01:56:26;5.30;97.00
32366;DHT22;18837;46.832;16.838;2023-02-04T01:58:53;5.30;97.00
32366;DHT22;18837;46.832;16.838;2023-02-04T02:01:35;5.30;96.90
32366;DHT22;18837;46.832;16.838;2023-02-04T02:04:25;5.20;97.00
32366;DHT22;18837;46.832;16.838;2023-02-04T02:07:18;5.20;97.50
32366;DHT22;18837;46.832;16.838;2023-02-04T02:12:47;5.20;97.10
32366;DHT22;18837;46.832;16.838;2023-02-04T02:15:13;5.20;97.00
32366;DHT22;18837;46.832;16.838;2023-02-04T02:17:40;5.20;96.90
32366;DHT22;18837;46.832;16.838;2023-02-04T02:20:08;5.20;96.90
32366;DHT22;18837;46.832;16.838;2023-02-04T02:25:41;5.20;97.60
32366;DHT22;18837;46.832;16.838;2023-02-04T02:28:12;5.30;97.10
32366;DHT22;18837;46.832;16.838;2023-02-04T02:30:40;5.20;97.10
32366;DHT22;18837;46.832;16.838;2023-02-04T02:33:09;5.10;96.90
32366;DHT22;18837;46.832;16.838;2023-02-04T02:35:35;5.10;97.00
32366;DHT22;18837;46.832;16.838;2023-02-04T02:38:29;5.10;96.90
32366;DHT22;18837;46.832;16.838;2023-02-04T02:41:18;5.10;97.60
32366;DHT22;18837;46.832;16.838;2023-02-04T02:44:02;5.10;97.50
32366;DHT22;18837;46.832;16.838;2023-02-04T02:46:28;5.10;97.10
32366;DHT22;18837;46.832;16.838;2023-02-04T02:48:54;5.10;97.00
32366;DHT22;18837;46.832;16.838;2023-02-04T02:51:20;5.10;97.30
32366;DHT22;18837;46.832;16.838;2023-02-04T02:53:49;5.10;96.90
32366;DHT22;18837;46.832;16.838;2023-02-04T02:56:16;5.10;97.00
32366;DHT22;18837;46.832;16.838;2023-02-04T02:58:45;5.10;97.00
32366;DHT22;18837;46.832;16.838;2023-02-04T03:01:11;5.10;97.10
32366;DHT22;18837;46.832;16.838;2023-02-04T03:03:49;5.20;97.10
32366;DHT22;18837;46.832;16.838;2023-02-04T03:06:22;5.10;97.00
32366;DHT22;18837;46.832;16.838;2023-02-04T03:08:51;5.10;97.00
32366;DHT22;18837;46.832;16.838;2023-02-04T03:11:19;5.10;97.00
32366;DHT22;18837;46.832;16.838;2023-02-04T03:14:09;5.10;97.00
32366;DHT22;18837;46.832;16.838;2023-02-04T03:16:52;5.10;97.60
32366;DHT22;18837;46.832;16.838;2023-02-04T03:19:19;5.20;97.10
32366;DHT22;18837;46.832;16.838;2023-02-04T03:21:45;5.10;97.00
32366;DHT22;18837;46.832;16.838;2023-02-04T03:24:11;5.10;96.90
32366;DHT22;18837;46.832;16.838;2023-02-04T03:26:37;5.10;97.00
32366;DHT22;18837;46.832;16.838;2023-02-04T03:29:11;5.10;96.90
32366;DHT22;18837;46.832;16.838;2023-02-04T03:31:59;5.10;96.90
32366;DHT22;18837;46.832;16.838;2023-02-04T03:34:25;5.10;97.00
32366;DHT22;18837;46.832;16.838;2023-02-04T03:36:51;5.10;96.80
32366;DHT22;18837;46.832;16.838;2023-02-04T03:39:17;5.10;97.10
32366;DHT22;18837;46.832;16.838;2023-02-04T03:41:46;5.10;97.00
32366;DHT22;18837;46.832;16.838;2023-02-04T03:44:11;5.10;97.00
32366;DHT22;18837;46.832;16.838;2023-02-04T03:47:02;5.10;96.90
32366;DHT22;18837;46.832;16.838;2023-02-04T03:49:54;5.10;97.60
32366;DHT22;18837;46.832;16.838;2023-02-04T03:55:32;5.10;97.30
32366;DHT22;18837;46.832;16.838;2023-02-04T03:58:15;5.10;97.00
32366;DHT22;18837;46.832;16.838;2023-02-04T04:00:41;5.10;97.10
32366;DHT22;18837;46.832;16.838;2023-02-04T04:03:07;5.10;97.10
32366;DHT22;18837;46.832;16.838;2023-02-04T04:05:32;5.10;97.20
32366;DHT22;18837;46.832;16.838;2023-02-04T04:08:10;5.10;97.10
32366;DHT22;18837;46.832;16.838;2023-02-04T04:10:36;5.10;97.30
32366;DHT22;18837;46.832;16.838;2023-02-04T04:13:05;5.10;97.10
32366;DHT22;18837;46.832;16.838;2023-02-04T04:15:33;5.10;97.40
32366;DHT22;18837;46.832;16.838;2023-02-04T04:20:37;5.10;97.30
32366;DHT22;18837;46.832;16.838;2023-02-04T04:26:26;5.10;97.60
32366;DHT22;18837;46.832;16.838;2023-02-04T04:28:52;5.10;97.70
32366;DHT22;18837;46.832;16.838;2023-02-04T04:31:18;5.10;97.10
32366;DHT22;18837;46.832;16.838;2023-02-04T04:33:46;5.10;97.10
32366;DHT22;18837;46.832;16.838;2023-02-04T04:36:12;5.10;97.50
32366;DHT22;18837;46.832;16.838;2023-02-04T04:38:39;5.10;97.10
32366;DHT22;18837;46.832;16.838;2023-02-04T04:43:40;5.10;97.40
32366;DHT22;18837;46.832;16.838;2023-02-04T04:46:06;5.10;97.10
32366;DHT22;18837;46.832;16.838;2023-02-04T04:51:07;5.10;97.50
32366;DHT22;18837;46.832;16.838;2023-02-04T04:53:33;5.10;97.10
32366;DHT22;18837;46.832;16.838;2023-02-04T04:56:22;5.10;97.00
32366;DHT22;18837;46.832;16.838;2023-02-04T04:59:22;5.10;97.60
32366;DHT22;18837;46.832;16.838;2023-02-04T05:04:23;5.10;97.40
32366;DHT22;18837;46.832;16.838;2023-02-04T05:06:49;5.10;97.10
32366;DHT22;18837;46.832;16.838;2023-02-04T05:09:14;5.10;97.10
32366;DHT22;18837;46.832;16.838;2023-02-04T05:11:45;5.10;97.00
32366;DHT22;18837;46.832;16.838;2023-02-04T05:14:12;5.10;97.10
32366;DHT22;18837;46.832;16.838;2023-02-04T05:16:42;5.10;97.10
32366;DHT22;18837;46.832;16.838;2023-02-04T05:19:08;5.10;97.20
32366;DHT22;18837;46.832;16.838;2023-02-04T05:21:33;5.10;97.10
32366;DHT22;18837;46.832;16.838;2023-02-04T05:24:02;5.10;97.10
32366;DHT22;18837;46.832;16.838;2023-02-04T05:26:28;5.10;97.20
32366;DHT22;18837;46.832;16.838;2023-02-04T05:36:40;5.10;97.50
32366;DHT22;18837;46.832;16.838;2023-02-04T05:39:05;5.10;97.50
32366;DHT22;18837;46.832;16.838;2023-02-04T05:41:46;5.10;96.90
32366;DHT22;18837;46.832;16.838;2023-02-04T05:44:12;5.00;97.30
32366;DHT22;18837;46.832;16.838;2023-02-04T05:46:38;5.10;97.20
32366;DHT22;18837;46.832;16.838;2023-02-04T05:49:22;5.00;97.20
32366;DHT22;18837;46.832;16.838;2023-02-04T05:51:52;5.10;97.30
32366;DHT22;18837;46.832;16.838;2023-02-04T05:54:18;5.00;97.10
32366;DHT22;18837;46.832;16.838;2023-02-04T05:56:48;5.00;97.10
32366;DHT22;18837;46.832;16.838;2023-02-04T05:59:16;5.10;97.30
32366;DHT22;18837;46.832;16.838;2023-02-04T06:01:42;5.00;97.10
32366;DHT22;18837;46.832;16.838;2023-02-04T06:04:10;5.10;97.10
32366;DHT22;18837;46.832;16.838;2023-02-04T06:07:03;5.10;97.20
32366;DHT22;18837;46.832;16.838;2023-02-04T06:09:52;5.10;97.60
32366;DHT22;18837;46.832;16.838;2023-02-04T06:12:18;5.10;97.50
32366;DHT22;18837;46.832;16.838;2023-02-04T06:14:44;5.10;97.30
32366;DHT22;18837;46.832;16.838;2023-02-04T06:17:09;5.10;97.30
32366;DHT22;18837;46.832;16.838;2023-02-04T06:19:35;5.10;97.10
32366;DHT22;18837;46.832;16.838;2023-02-04T06:22:04;5.10;97.00
32366;DHT22;18837;46.832;16.838;2023-02-04T06:24:34;5.10;97.40
32366;DHT22;18837;46.832;16.838;2023-02-04T06:27:04;5.10;97.10
32366;DHT22;18837;46.832;16.838;2023-02-04T06:29:29;5.10;97.60
32366;DHT22;18837;46.832;16.838;2023-02-04T06:31:55;5.10;97.20
32366;DHT22;18837;46.832;16.838;2023-02-04T06:34:21;5.10;97.10
32366;DHT22;18837;46.832;16.838;2023-02-04T06:36:46;5.10;96.90
32366;DHT22;18837;46.832;16.838;2023-02-04T06:39:31;5.10;97.00
32366;DHT22;18837;46.832;16.838;2023-02-04T06:42:19;5.10;97.10
32366;DHT22;18837;46.832;16.838;2023-02-04T06:44:48;5.20;97.50
32366;DHT22;18837;46.832;16.838;2023-02-04T06:47:16;5.10;97.10
32366;DHT22;18837;46.832;16.838;2023-02-04T06:49:42;5.10;97.40
32366;DHT22;18837;46.832;16.838;2023-02-04T06:52:08;5.10;96.90
32366;DHT22;18837;46.832;16.838;2023-02-04T06:54:34;5.10;96.90
32366;DHT22;18837;46.832;16.838;2023-02-04T06:57:03;5.10;97.10
32366;DHT22;18837;46.832;16.838;2023-02-04T07:02:09;5.10;97.50
32366;DHT22;18837;46.832;16.838;2023-02-04T07:07:16;5.10;97.30
32366;DHT22;18837;46.832;16.838;2023-02-04T07:09:42;5.10;96.90
32366;DHT22;18837;46.832;16.838;2023-02-04T07:12:08;5.10;96.80
32366;DHT22;18837;46.832;16.838;2023-02-04T07:14:53;5.10;96.90
32366;DHT22;18837;46.832;16.838;2023-02-04T07:17:18;5.00;97.00
32366;DHT22;18837;46.832;16.838;2023-02-04T07:19:44;5.00;96.90
32366;DHT22;18837;46.832;16.838;2023-02-04T07:22:10;5.00;96.70
32366;DHT22;18837;46.832;16.838;2023-02-04T07:24:35;5.00;96.60
32366;DHT22;18837;46.832;16.838;2023-02-04T07:27:01;5.00;96.50
32366;DHT22;18837;46.832;16.838;2023-02-04T07:29:27;5.00;96.60
32366;DHT22;18837;46.832;16.838;2023-02-04T07:31:53;5.00;96.50
32366;DHT22;18837;46.832;16.838;2023-02-04T07:34:35;5.00;96.40
32366;DHT22;18837;46.832;16.838;2023-02-04T07:37:04;5.00;96.60
32366;DHT22;18837;46.832;16.838;2023-02-04T07:39:39;5.00;96.30
32366;DHT22;18837;46.832;16.838;2023-02-04T07:42:15;5.00;96.70
32366;DHT22;18837;46.832;16.838;2023-02-04T07:44:44;5.00;96.30
32366;DHT22;18837;46.832;16.838;2023-02-04T07:47:30;5.00;96.70
32366;DHT22;18837;46.832;16.838;2023-02-04T07:53:39;5.00;96.80
32366;DHT22;18837;46.832;16.838;2023-02-04T07:56:08;5.10;96.60
32366;DHT22;18837;46.832;16.838;2023-02-04T08:01:09;5.10;96.20
32366;DHT22;18837;46.832;16.838;2023-02-04T08:14:17;5.10;95.70
32366;DHT22;18837;46.832;16.838;2023-02-04T08:16:43;5.10;95.20
32366;DHT22;18837;46.832;16.838;2023-02-04T08:19:09;5.10;95.10
32366;DHT22;18837;46.832;16.838;2023-02-04T08:21:38;5.10;94.90
32366;DHT22;18837;46.832;16.838;2023-02-04T08:27:44;5.10;95.10
32366;DHT22;18837;46.832;16.838;2023-02-04T08:30:10;5.10;95.00
32366;DHT22;18837;46.832;16.838;2023-02-04T08:32:36;5.10;94.40
32366;DHT22;18837;46.832;16.838;2023-02-04T08:35:06;5.10;94.40
32366;DHT22;18837;46.832;16.838;2023-02-04T08:40:08;5.10;94.60
32366;DHT22;18837;46.832;16.838;2023-02-04T08:42:40;5.10;94.40
32366;DHT22;18837;46.832;16.838;2023-02-04T08:45:06;5.20;94.40
32366;DHT22;18837;46.832;16.838;2023-02-04T08:47:32;5.10;94.40
32366;DHT22;18837;46.832;16.838;2023-02-04T08:49:57;5.10;94.20
32366;DHT22;18837;46.832;16.838;2023-02-04T08:52:23;5.20;94.30
32366;DHT22;18837;46.832;16.838;2023-02-04T08:54:49;5.10;94.40
32366;DHT22;18837;46.832;16.838;2023-02-04T08:57:45;5.20;94.70
32366;DHT22;18837;46.832;16.838;2023-02-04T09:00:18;5.20;95.20
32366;DHT22;18837;46.832;16.838;2023-02-04T09:02:45;5.10;94.70
32366;DHT22;18837;46.832;16.838;2023-02-04T09:05:13;5.20;94.70
32366;DHT22;18837;46.832;16.838;2023-02-04T09:07:39;5.20;94.70
32366;DHT22;18837;46.832;16.838;2023-02-04T09:10:05;5.20;94.70
32366;DHT22;18837;46.832;16.838;2023-02-04T09:12:30;5.20;94.80
32366;DHT22;18837;46.832;16.838;2023-02-04T09:14:56;5.20;94.70
32366;DHT22;18837;46.832;16.838;2023-02-04T09:17:37;5.20;94.70
32366;DHT22;18837;46.832;16.838;2023-02-04T09:20:07;5.20;95.00
32366;DHT22;18837;46.832;16.838;2023-02-04T09:22:33;5.20;94.70
32366;DHT22;18837;46.832;16.838;2023-02-04T09:25:01;5.20;94.60
32366;DHT22;18837;46.832;16.838;2023-02-04T09:27:26;5.20;94.60
32366;DHT22;18837;46.832;16.838;2023-02-04T09:29:53;5.20;94.50
32366;DHT22;18837;46.832;16.838;2023-02-04T09:32:30;5.20;94.60
32366;DHT22;18837;46.832;16.838;2023-02-04T09:35:10;5.30;95.00
32366;DHT22;18837;46.832;16.838;2023-02-04T09:37:43;5.30;94.60
32366;DHT22;18837;46.832;16.838;2023-02-04T09:40:15;5.30;94.10
32366;DHT22;18837;46.832;16.838;2023-02-04T09:42:49;5.30;93.90
32366;DHT22;18837;46.832;16.838;2023-02-04T09:45:25;5.30;93.90
32366;DHT22;18837;46.832;16.838;2023-02-04T09:47:56;5.30;94.20
32366;DHT22;18837;46.832;16.838;2023-02-04T09:50:26;5.30;94.30
32366;DHT22;18837;46.832;16.838;2023-02-04T09:52:55;5.30;94.30
32366;DHT22;18837;46.832;16.838;2023-02-04T09:55:28;5.30;94.20
32366;DHT22;18837;46.832;16.838;2023-02-04T09:57:54;5.30;94.00
32366;DHT22;18837;46.832;16.838;2023-02-04T10:00:22;5.30;94.10
32366;DHT22;18837;46.832;16.838;2023-02-04T10:02:48;5.30;94.30
32366;DHT22;18837;46.832;16.838;2023-02-04T10:05:20;5.30;94.10
32366;DHT22;18837;46.832;16.838;2023-02-04T10:07:49;5.30;94.20
32366;DHT22;18837;46.832;16.838;2023-02-04T10:10:23;5.30;94.00
32366;DHT22;18837;46.832;16.838;2023-02-04T10:12:59;5.30;94.10
32366;DHT22;18837;46.832;16.838;2023-02-04T10:15:26;5.30;94.40
32366;DHT22;18837;46.832;16.838;2023-02-04T10:18:02;5.40;94.10
32366;DHT22;18837;46.832;16.838;2023-02-04T10:20:29;5.30;94.10
32366;DHT22;18837;46.832;16.838;2023-02-04T10:22:55;5.40;94.00
32366;DHT22;18837;46.832;16.838;2023-02-04T10:25:28;5.30;93.90
32366;DHT22;18837;46.832;16.838;2023-02-04T10:27:57;5.40;93.90
32366;DHT22;18837;46.832;16.838;2023-02-04T10:30:29;5.40;93.90
32366;DHT22;18837;46.832;16.838;2023-02-04T10:32:58;5.40;94.00
32366;DHT22;18837;46.832;16.838;2023-02-04T10:35:25;5.40;93.90
32366;DHT22;18837;46.832;16.838;2023-02-04T10:38:05;5.40;94.00
32366;DHT22;18837;46.832;16.838;2023-02-04T10:40:33;5.40;93.70
32366;DHT22;18837;46.832;16.838;2023-02-04T10:43:31;5.40;93.50
32366;DHT22;18837;46.832;16.838;2023-02-04T10:46:01;5.40;93.60
32366;DHT22;18837;46.832;16.838;2023-02-04T10:48:27;5.40;93.50
32366;DHT22;18837;46.832;16.838;2023-02-04T10:54:42;5.40;93.70
32366;DHT22;18837;46.832;16.838;2023-02-04T10:57:28;5.40;93.40
32366;DHT22;18837;46.832;16.838;2023-02-04T10:59:57;5.40;93.40
32366;DHT22;18837;46.832;16.838;2023-02-04T11:02:39;5.40;93.20
32366;DHT22;18837;46.832;16.838;2023-02-04T11:05:18;5.40;93.40
32366;DHT22;18837;46.832;16.838;2023-02-04T11:07:47;5.40;93.60
32366;DHT22;18837;46.832;16.838;2023-02-04T11:10:32;5.40;93.20
32366;DHT22;18837;46.832;16.838;2023-02-04T11:13:18;5.40;93.20
32366;DHT22;18837;46.832;16.838;2023-02-04T11:16:12;5.40;93.70
32366;DHT22;18837;46.832;16.838;2023-02-04T11:18:59;5.40;93.70
32366;DHT22;18837;46.832;16.838;2023-02-04T11:30:30;5.40;93.60
32366;DHT22;18837;46.832;16.838;2023-02-04T11:33:04;5.40;93.70
32366;DHT22;18837;46.832;16.838;2023-02-04T11:35:30;5.40;93.20
32366;DHT22;18837;46.832;16.838;2023-02-04T11:37:56;5.40;93.00
32366;DHT22;18837;46.832;16.838;2023-02-04T11:40:32;5.40;93.10
32366;DHT22;18837;46.832;16.838;2023-02-04T11:43:15;5.40;93.40
32366;DHT22;18837;46.832;16.838;2023-02-04T11:45:47;5.40;93.50
32366;DHT22;18837;46.832;16.838;2023-02-04T11:48:16;5.40;93.20
32366;DHT22;18837;46.832;16.838;2023-02-04T11:50:57;5.40;93.10
32366;DHT22;18837;46.832;16.838;2023-02-04T11:53:27;5.40;93.30
32366;DHT22;18837;46.832;16.838;2023-02-04T11:55:53;5.40;92.80
32366;DHT22;18837;46.832;16.838;2023-02-04T11:58:20;5.40;92.80
32366;DHT22;18837;46.832;16.838;2023-02-04T12:04:25;5.40;93.50
32366;DHT22;18837;46.832;16.838;2023-02-04T12:07:01;5.40;93.70
32366;DHT22;18837;46.832;16.838;2023-02-04T12:09:31;5.40;93.20
32366;DHT22;18837;46.832;16.838;2023-02-04T12:12:01;5.40;93.40
32366;DHT22;18837;46.832;16.838;2023-02-04T12:14:36;5.40;93.30
32366;DHT22;18837;46.832;16.838;2023-02-04T12:17:18;5.40;93.60
32366;DHT22;18837;46.832;16.838;2023-02-04T12:20:04;5.40;92.90
32366;DHT22;18837;46.832;16.838;2023-02-04T12:22:29;5.40;93.50
32366;DHT22;18837;46.832;16.838;2023-02-04T12:24:55;5.40;93.00
32366;DHT22;18837;46.832;16.838;2023-02-04T12:27:24;5.40;93.00
32366;DHT22;18837;46.832;16.838;2023-02-04T12:29:50;5.40;92.80
32366;DHT22;18837;46.832;16.838;2023-02-04T12:32:15;5.40;93.00
32366;DHT22;18837;46.832;16.838;2023-02-04T12:35:12;5.40;92.90
32366;DHT22;18837;46.832;16.838;2023-02-04T12:37:58;5.30;93.60
32366;DHT22;18837;46.832;16.838;2023-02-04T12:40:24;5.10;93.80
32366;DHT22;18837;46.832;16.838;2023-02-04T12:42:49;5.40;93.40
32366;DHT22;18837;46.832;16.838;2023-02-04T12:45:24;5.30;93.20
32366;DHT22;18837;46.832;16.838;2023-02-04T12:47:50;5.30;93.70
32366;DHT22;18837;46.832;16.838;2023-02-04T12:50:19;5.30;93.10
32366;DHT22;18837;46.832;16.838;2023-02-04T12:52:52;5.30;93.90
32366;DHT22;18837;46.832;16.838;2023-02-04T12:55:28;5.30;92.90
32366;DHT22;18837;46.832;16.838;2023-02-04T12:57:54;5.30;93.20
32366;DHT22;18837;46.832;16.838;2023-02-04T13:00:21;5.30;93.20
32366;DHT22;18837;46.832;16.838;2023-02-04T13:02:48;5.30;93.00
32366;DHT22;18837;46.832;16.838;2023-02-04T13:05:16;5.30;93.20
32366;DHT22;18837;46.832;16.838;2023-02-04T13:07:42;5.30;93.20
32366;DHT22;18837;46.832;16.838;2023-02-04T13:10:26;5.30;93.00
32366;DHT22;18837;46.832;16.838;2023-02-04T13:13:11;5.30;93.70
32366;DHT22;18837;46.832;16.838;2023-02-04T13:15:38;5.30;93.00
32366;DHT22;18837;46.832;16.838;2023-02-04T13:18:04;5.30;93.00
32366;DHT22;18837;46.832;16.838;2023-02-04T13:20:30;5.30;93.10
32366;DHT22;18837;46.832;16.838;2023-02-04T13:22:56;5.30;93.30
32366;DHT22;18837;46.832;16.838;2023-02-04T13:25:21;5.30;93.20
32366;DHT22;18837;46.832;16.838;2023-02-04T13:27:47;5.30;93.30
32366;DHT22;18837;46.832;16.838;2023-02-04T13:30:13;5.30;92.30
32366;DHT22;18837;46.832;16.838;2023-02-04T13:32:40;5.30;90.10
32366;DHT22;18837;46.832;16.838;2023-02-04T13:35:06;5.40;89.70
32366;DHT22;18837;46.832;16.838;2023-02-04T13:37:32;5.60;89.70
32366;DHT22;18837;46.832;16.838;2023-02-04T13:39:58;5.70;89.50
32366;DHT22;18837;46.832;16.838;2023-02-04T13:42:23;5.90;89.70
32366;DHT22;18837;46.832;16.838;2023-02-04T13:44:54;5.90;89.40
32366;DHT22;18837;46.832;16.838;2023-02-04T13:47:39;6.20;89.70
32366;DHT22;18837;46.832;16.838;2023-02-04T13:50:17;6.30;89.30
32366;DHT22;18837;46.832;16.838;2023-02-04T13:52:43;6.50;89.30
32366;DHT22;18837;46.832;16.838;2023-02-04T13:55:12;6.60;88.40
32366;DHT22;18837;46.832;16.838;2023-02-04T13:57:37;6.70;87.70
32366;DHT22;18837;46.832;16.838;2023-02-04T14:00:05;6.70;87.20
32366;DHT22;18837;46.832;16.838;2023-02-04T14:02:31;6.80;87.80
32366;DHT22;18837;46.832;16.838;2023-02-04T14:04:57;6.90;87.00
32366;DHT22;18837;46.832;16.838;2023-02-04T14:07:23;6.90;87.80
32366;DHT22;18837;46.832;16.838;2023-02-04T14:09:49;7.00;86.50
32366;DHT22;18837;46.832;16.838;2023-02-04T14:12:15;7.00;86.40
32366;DHT22;18837;46.832;16.838;2023-02-04T14:14:40;7.00;86.20
32366;DHT22;18837;46.832;16.838;2023-02-04T14:17:06;7.00;86.00
32366;DHT22;18837;46.832;16.838;2023-02-04T14:19:35;7.10;87.00
32366;DHT22;18837;46.832;16.838;2023-02-04T14:22:01;7.10;87.50
32366;DHT22;18837;46.832;16.838;2023-02-04T14:24:27;7.10;85.40
32366;DHT22;18837;46.832;16.838;2023-02-04T14:26:55;7.10;84.70
32366;DHT22;18837;46.832;16.838;2023-02-04T14:29:21;7.10;85.30
32366;DHT22;18837;46.832;16.838;2023-02-04T14:31:47;7.10;85.20
32366;DHT22;18837;46.832;16.838;2023-02-04T14:34:12;7.10;85.10
32366;DHT22;18837;46.832;16.838;2023-02-04T14:36:38;7.10;84.70
32366;DHT22;18837;46.832;16.838;2023-02-04T14:39:07;7.10;85.10
32366;DHT22;18837;46.832;16.838;2023-02-04T14:41:32;7.10;86.90
32366;DHT22;18837;46.832;16.838;2023-02-04T14:44:00;7.10;84.70
32366;DHT22;18837;46.832;16.838;2023-02-04T14:46:26;7.10;84.40
32366;DHT22;18837;46.832;16.838;2023-02-04T14:48:51;7.10;84.30
32366;DHT22;18837;46.832;16.838;2023-02-04T14:51:33;7.10;84.70
32366;DHT22;18837;46.832;16.838;2023-02-04T14:53:59;7.10;85.10
32366;DHT22;18837;46.832;16.838;2023-02-04T14:56:26;7.10;85.70
32366;DHT22;18837;46.832;16.838;2023-02-04T14:58:52;7.10;84.70
32366;DHT22;18837;46.832;16.838;2023-02-04T15:01:18;7.10;84.70
32366;DHT22;18837;46.832;16.838;2023-02-04T15:03:44;7.10;83.70
32366;DHT22;18837;46.832;16.838;2023-02-04T15:06:30;7.10;83.30
32366;DHT22;18837;46.832;16.838;2023-02-04T15:08:57;7.10;86.90
32366;DHT22;18837;46.832;16.838;2023-02-04T15:11:23;7.10;83.20
32366;DHT22;18837;46.832;16.838;2023-02-04T15:13:49;7.00;82.80
32366;DHT22;18837;46.832;16.838;2023-02-04T15:16:14;7.00;83.30
32366;DHT22;18837;46.832;16.838;2023-02-04T15:18:40;7.00;82.90
32366;DHT22;18837;46.832;16.838;2023-02-04T15:21:06;7.00;82.90
32366;DHT22;18837;46.832;16.838;2023-02-04T15:23:47;7.00;83.40
32366;DHT22;18837;46.832;16.838;2023-02-04T15:26:13;6.90;84.10
32366;DHT22;18837;46.832;16.838;2023-02-04T15:28:39;6.90;83.30
32366;DHT22;18837;46.832;16.838;2023-02-04T15:31:05;6.90;83.20
32366;DHT22;18837;46.832;16.838;2023-02-04T15:33:31;6.90;83.50
32366;DHT22;18837;46.832;16.838;2023-02-04T15:36:05;6.90;82.90
32366;DHT22;18837;46.832;16.838;2023-02-04T15:38:31;6.80;82.40
32366;DHT22;18837;46.832;16.838;2023-02-04T15:44:58;6.80;87.40
32366;DHT22;18837;46.832;16.838;2023-02-04T15:47:24;6.70;86.00
32366;DHT22;18837;46.832;16.838;2023-02-04T15:49:49;6.70;82.60
32366;DHT22;18837;46.832;16.838;2023-02-04T15:52:18;6.70;82.60
32366;DHT22;18837;46.832;16.838;2023-02-04T15:54:47;6.70;84.10
32366;DHT22;18837;46.832;16.838;2023-02-04T15:59:48;6.60;84.10
32366;DHT22;18837;46.832;16.838;2023-02-04T16:02:14;6.60;82.70
32366;DHT22;18837;46.832;16.838;2023-02-04T16:04:40;6.60;82.00
32366;DHT22;18837;46.832;16.838;2023-02-04T16:07:09;6.60;82.30
32366;DHT22;18837;46.832;16.838;2023-02-04T16:09:35;6.60;82.10
32366;DHT22;18837;46.832;16.838;2023-02-04T16:12:01;6.50;82.10
32366;DHT22;18837;46.832;16.838;2023-02-04T16:14:27;6.50;82.30
32366;DHT22;18837;46.832;16.838;2023-02-04T16:16:53;6.40;81.80
32366;DHT22;18837;46.832;16.838;2023-02-04T16:19:22;6.50;82.00
32366;DHT22;18837;46.832;16.838;2023-02-04T16:21:51;6.40;83.90
32366;DHT22;18837;46.832;16.838;2023-02-04T16:24:17;6.40;82.00
32366;DHT22;18837;46.832;16.838;2023-02-04T16:26:44;6.40;82.40
32366;DHT22;18837;46.832;16.838;2023-02-04T16:29:21;6.40;82.40
32366;DHT22;18837;46.832;16.838;2023-02-04T16:31:47;6.30;82.20
32366;DHT22;18837;46.832;16.838;2023-02-04T16:34:13;6.30;82.50
32366;DHT22;18837;46.832;16.838;2023-02-04T16:36:39;6.30;82.10
32366;DHT22;18837;46.832;16.838;2023-02-04T16:39:04;6.30;82.20
32366;DHT22;18837;46.832;16.838;2023-02-04T16:41:30;6.30;82.10
32366;DHT22;18837;46.832;16.838;2023-02-04T16:43:56;6.20;82.10
32366;DHT22;18837;46.832;16.838;2023-02-04T16:46:23;6.20;82.00
32366;DHT22;18837;46.832;16.838;2023-02-04T16:48:49;6.20;82.30
32366;DHT22;18837;46.832;16.838;2023-02-04T16:51:14;6.20;82.10
32366;DHT22;18837;46.832;16.838;2023-02-04T16:56:17;6.20;83.00
32366;DHT22;18837;46.832;16.838;2023-02-04T16:58:43;6.20;82.50
32366;DHT22;18837;46.832;16.838;2023-02-04T17:01:09;6.10;81.80
32366;DHT22;18837;46.832;16.838;2023-02-04T17:03:35;6.10;82.50
32366;DHT22;18837;46.832;16.838;2023-02-04T17:06:01;6.10;82.30
32366;DHT22;18837;46.832;16.838;2023-02-04T17:08:27;6.00;82.20
32366;DHT22;18837;46.832;16.838;2023-02-04T17:10:54;6.00;82.40
32366;DHT22;18837;46.832;16.838;2023-02-04T17:13:43;6.00;83.00
32366;DHT22;18837;46.832;16.838;2023-02-04T17:16:09;6.00;83.10
32366;DHT22;18837;46.832;16.838;2023-02-04T17:18:35;6.00;83.30
32366;DHT22;18837;46.832;16.838;2023-02-04T17:21:00;6.00;82.90
32366;DHT22;18837;46.832;16.838;2023-02-04T17:23:27;6.00;82.90
32366;DHT22;18837;46.832;16.838;2023-02-04T17:25:53;6.00;83.00
32366;DHT22;18837;46.832;16.838;2023-02-04T17:28:18;6.00;83.30